Time;durP1;ratioP1;P1;durP2;ratioP2;P2;SDS_P1;SDS_P2;PMS_P1;PMS_P2;Temp;Humidity;BMP_temperature;BMP_pressure;BME280_temperature;BME280_humidity;BME280_pressure;Samples;Min_cycle;Max_cycle;Signal;HPM_P1;HPM_P2
2022/08/10 00:01:22;;;;;;;12.10;8.75;;;;;;;18.16;66.89;102566.63;5013629;28;20025;-59
2022/08/10 00:03:48;;;;;;;12.80;8.40;;;;;;;18.17;66.77;102559.06;5013262;28;20030;-60
2022/08/10 00:06:13;;;;;;;12.23;8.32;;;;;;;18.11;66.99;102558.34;5013661;28;20399;-59
2022/08/10 00:08:39;;;;;;;12.65;8.00;;;;;;;18.10;66.92;102567.91;5013621;28;20062;-60
2022/08/10 00:11:04;;;;;;;11.60;8.52;;;;;;;18.04;67.39;102555.16;5013478;28;20099;-59
2022/08/10 00:13:29;;;;;;;12.55;8.10;;;;;;;18.00;67.31;102552.13;5013309;28;20034;-59
2022/08/10 00:15:55;;;;;;;14.57;8.50;;;;;;;18.01;67.36;102553.00;4995801;28;20036;-59
2022/08/10 00:18:24;;;;;;;13.02;8.60;;;;;;;17.90;67.73;102558.78;5013590;28;20130;-59
2022/08/10 00:20:49;;;;;;;11.55;8.27;;;;;;;17.84;67.90;102557.25;5013332;28;20049;-59
2022/08/10 00:23:16;;;;;;;13.10;8.38;;;;;;;17.77;68.27;102548.44;5012997;28;20351;-60
2022/08/10 00:25:41;;;;;;;12.43;8.60;;;;;;;17.77;68.23;102546.47;5013666;28;20064;-58
2022/08/10 00:28:06;;;;;;;14.85;8.65;;;;;;;17.72;68.56;102546.59;5013147;28;20030;-58
2022/08/10 00:30:32;;;;;;;12.95;8.40;;;;;;;17.70;68.57;102539.66;5013150;28;20025;-59
2022/08/10 00:32:57;;;;;;;13.65;8.57;;;;;;;17.68;69.04;102547.53;5012781;28;20448;-60
2022/08/10 00:35:22;;;;;;;13.73;8.38;;;;;;;17.68;68.94;102541.94;5012886;28;20144;-60
2022/08/10 00:37:48;;;;;;;12.60;8.30;;;;;;;17.65;69.11;102539.78;5012649;28;20044;-63
2022/08/10 00:40:13;;;;;;;13.52;8.77;;;;;;;17.61;69.22;102540.38;5012080;28;20029;-59
2022/08/10 00:42:38;;;;;;;13.45;8.48;;;;;;;17.56;69.20;102534.06;5012640;28;20124;-59
2022/08/10 00:45:04;;;;;;;12.57;8.70;;;;;;;17.53;69.38;102534.69;5012902;28;20109;-58
2022/08/10 00:47:30;;;;;;;11.10;8.40;;;;;;;17.51;69.50;102528.59;5012728;28;20028;-59
2022/08/10 00:49:55;;;;;;;14.68;8.82;;;;;;;17.50;69.75;102535.34;5013484;28;20014;-59
2022/08/10 00:52:23;;;;;;;13.60;8.80;;;;;;;17.44;69.87;102531.81;5013144;28;20021;-59
2022/08/10 00:54:49;;;;;;;13.88;8.95;;;;;;;17.39;70.28;102531.91;5012928;28;20022;-60
2022/08/10 00:57:14;;;;;;;14.55;8.60;;;;;;;17.33;70.07;102524.78;5012908;28;20410;-59
2022/08/10 00:59:40;;;;;;;12.88;9.00;;;;;;;17.35;70.54;102539.28;5012691;28;20521;-61
2022/08/10 01:02:05;;;;;;;14.77;9.07;;;;;;;17.25;70.94;102523.53;5012777;28;20030;-59
2022/08/10 01:04:31;;;;;;;13.05;8.77;;;;;;;17.25;70.75;102521.56;5012795;28;20048;-59
2022/08/10 01:07:24;;;;;;;15.07;9.13;;;;;;;17.24;70.09;102525.50;5012340;28;20034;-60
2022/08/10 01:10:05;;;;;;;17.05;9.00;;;;;;;17.18;71.14;102523.13;5012473;28;20044;-60
2022/08/10 01:12:37;;;;;;;15.05;9.07;;;;;;;17.14;71.42;102526.53;4994841;28;20038;-59
2022/08/10 01:15:23;;;;;;;13.52;9.00;;;;;;;17.12;70.99;102520.44;5012422;28;20034;-59
2022/08/10 01:17:54;;;;;;;14.57;9.02;;;;;;;17.02;71.76;102520.63;5012309;28;20060;-59
2022/08/10 01:20:32;;;;;;;15.70;9.38;;;;;;;17.07;71.91;102526.09;5011816;28;20485;-60
2022/08/10 01:23:32;;;;;;;15.60;9.20;;;;;;;17.00;71.03;102512.53;5012306;28;20105;-60
2022/08/10 01:26:35;;;;;;;13.45;8.65;;;;;;;17.06;71.12;102529.22;4951268;29;20031;-60
2022/08/10 01:29:42;;;;;;;16.15;8.75;;;;;;;16.94;71.44;102508.19;5012061;28;20131;-60
2022/08/10 01:32:12;;;;;;;13.20;8.50;;;;;;;16.90;72.01;102509.09;5012336;28;20026;-59
2022/08/10 01:34:57;;;;;;;12.55;8.27;;;;;;;16.94;71.59;102515.75;5011996;28;20092;-60
2022/08/10 01:37:28;;;;;;;13.88;9.05;;;;;;;16.88;72.75;102528.13;5012113;28;20033;-59
2022/08/10 01:39:58;;;;;;;13.10;8.57;;;;;;;16.83;72.85;102520.66;5011592;28;20339;-59
2022/08/10 01:42:27;;;;;;;15.48;8.70;;;;;;;16.77;73.30;102521.91;5011700;28;20029;-60
2022/08/10 01:44:56;;;;;;;14.57;9.00;;;;;;;16.68;73.25;102513.41;5011714;28;20084;-59
2022/08/10 01:50:19;;;;;;;15.88;8.98;;;;;;;16.55;73.92;102517.81;5012143;28;20156;-58
2022/08/10 01:52:49;;;;;;;13.60;9.30;;;;;;;16.55;73.65;102517.00;5015274;28;20113;-59
2022/08/10 01:55:16;;;;;;;13.60;9.02;;;;;;;16.57;74.15;102523.13;5015726;28;20076;-59
2022/08/10 01:57:43;;;;;;;15.02;9.23;;;;;;;16.55;74.13;102529.00;5015589;28;20036;-59
2022/08/10 02:00:09;;;;;;;16.25;9.23;;;;;;;16.52;74.31;102529.63;5015663;28;20443;-60
2022/08/10 02:02:36;;;;;;;14.13;8.93;;;;;;;16.46;74.61;102531.69;5015861;28;20163;-59
2022/08/10 02:05:04;;;;;;;14.80;9.00;;;;;;;16.45;74.72;102527.22;5015517;28;20105;-59
2022/08/10 02:07:31;;;;;;;14.32;9.27;;;;;;;16.40;75.25;102530.09;5015552;28;20076;-59
2022/08/10 02:10:01;;;;;;;14.52;9.00;;;;;;;16.33;74.92;102519.31;5015540;28;20038;-59
2022/08/10 02:12:31;;;;;;;16.35;9.30;;;;;;;16.30;75.73;102528.31;5015300;28;20033;-59
2022/08/10 02:14:59;;;;;;;15.45;9.43;;;;;;;16.23;75.91;102522.28;5015630;28;20084;-59
2022/08/10 02:17:30;;;;;;;16.05;9.27;;;;;;;16.28;75.67;102526.97;5015491;28;20026;-59
2022/08/10 02:20:00;;;;;;;15.13;9.10;;;;;;;16.23;76.13;102525.06;5015321;28;20101;-59
2022/08/10 02:22:27;;;;;;;16.00;9.10;;;;;;;16.17;76.51;102515.94;5015297;28;20030;-59
2022/08/10 02:24:54;;;;;;;16.52;9.10;;;;;;;16.15;76.45;102517.41;5015041;28;20041;-59
2022/08/10 02:27:22;;;;;;;15.40;10.05;;;;;;;16.10;76.90;102515.50;5015416;28;20127;-59
2022/08/10 02:29:50;;;;;;;15.18;9.23;;;;;;;16.02;77.22;102510.59;5015300;28;20054;-59
2022/08/10 02:32:18;;;;;;;14.73;9.73;;;;;;;16.03;77.35;102515.88;5015295;28;20044;-59
2022/08/10 02:34:44;;;;;;;14.27;9.07;;;;;;;16.00;77.44;102518.47;5014922;28;20087;-59
2022/08/10 02:37:11;;;;;;;16.70;9.70;;;;;;;16.01;77.31;102517.31;5015031;28;20064;-60
2022/08/10 02:39:37;;;;;;;17.52;9.55;;;;;;;15.96;78.04;102520.19;5015026;28;20030;-58
2022/08/10 02:42:19;;;;;;;15.15;9.60;;;;;;;15.85;77.92;102502.78;5013858;28;20033;-59
2022/08/10 02:44:48;;;;;;;16.30;9.30;;;;;;;15.89;77.99;102518.59;5014914;28;20037;-59
2022/08/10 02:47:25;;;;;;;15.95;9.43;;;;;;;15.95;77.75;102510.16;5014840;28;20034;-59
2022/08/10 02:50:27;;;;;;;17.73;10.35;;;;;;;15.90;77.36;102511.06;5014945;28;20125;-58
2022/08/10 02:53:25;;;;;;;16.45;10.80;;;;;;;15.87;77.43;102508.88;4983351;28;20038;-59
2022/08/10 02:56:02;;;;;;;17.60;9.77;;;;;;;15.70;78.58;102490.66;5014736;28;20112;-59
2022/08/10 02:58:32;;;;;;;16.90;10.70;;;;;;;15.80;78.60;102512.00;5015069;28;20065;-59
2022/08/10 03:01:02;;;;;;;18.00;10.00;;;;;;;15.81;78.38;102501.66;5015049;28;20418;-61
2022/08/10 03:03:31;;;;;;;17.65;10.30;;;;;;;15.75;78.57;102504.53;5013564;28;20034;-59
2022/08/10 03:06:06;;;;;;;16.60;10.18;;;;;;;15.73;78.82;102503.16;5014707;28;20045;-59
2022/08/10 03:08:38;;;;;;;16.90;10.20;;;;;;;15.73;78.90;102501.22;4997166;28;20030;-59
2022/08/10 03:11:05;;;;;;;16.95;10.57;;;;;;;15.60;79.46;102488.00;5014622;28;20457;-58
2022/08/10 03:13:32;;;;;;;16.95;10.07;;;;;;;15.59;79.48;102491.94;5014586;28;20029;-59
2022/08/10 03:16:00;;;;;;;17.60;10.23;;;;;;;15.56;79.85;102489.75;5014665;28;20069;-59
2022/08/10 03:18:25;;;;;;;17.95;10.27;;;;;;;15.51;79.73;102484.22;5014597;28;20128;-59
2022/08/10 03:20:52;;;;;;;17.35;10.52;;;;;;;15.54;79.83;102481.66;5014301;28;20061;-58
2022/08/10 03:23:22;;;;;;;17.40;10.73;;;;;;;15.52;80.28;102495.09;5014540;28;20033;-59
2022/08/10 03:25:51;;;;;;;17.08;10.45;;;;;;;15.43;80.24;102480.19;5014388;28;20026;-59
2022/08/10 03:28:17;;;;;;;17.65;10.82;;;;;;;15.45;80.00;102489.03;5014436;28;20026;-59
2022/08/10 03:30:43;;;;;;;18.30;10.93;;;;;;;15.45;80.41;102483.47;5014253;28;20026;-59
2022/08/10 03:33:10;;;;;;;18.33;10.63;;;;;;;15.47;79.97;102484.00;5014192;28;20415;-59
2022/08/10 03:35:35;;;;;;;17.48;11.10;;;;;;;15.40;80.90;102487.16;5013973;28;20029;-59
2022/08/10 03:38:02;;;;;;;17.20;10.88;;;;;;;15.33;80.87;102486.69;5014464;28;20403;-60
2022/08/10 03:40:30;;;;;;;18.83;11.40;;;;;;;15.31;81.52;102496.50;5014192;28;20026;-59
2022/08/10 03:42:57;;;;;;;19.52;11.05;;;;;;;15.25;81.17;102487.38;5013819;28;20084;-60
2022/08/10 03:45:24;;;;;;;17.15;11.00;;;;;;;15.20;82.14;102487.44;5013728;28;20083;-59
2022/08/10 03:47:50;;;;;;;17.00;9.82;;;;;;;15.19;82.35;102489.38;5014005;28;20132;-59
2022/08/10 03:50:16;;;;;;;17.15;10.02;;;;;;;15.16;82.30;102497.50;5013905;28;20045;-59
2022/08/10 03:52:42;;;;;;;17.77;10.02;;;;;;;15.16;82.31;102494.72;5013920;28;20030;-60
2022/08/10 03:55:08;;;;;;;19.05;10.75;;;;;;;15.07;83.24;102489.81;5013987;28;20033;-59
2022/08/10 03:57:34;;;;;;;17.33;10.27;;;;;;;15.07;82.89;102483.38;5013823;28;20092;-60
2022/08/10 03:59:59;;;;;;;16.98;9.88;;;;;;;15.04;83.53;102495.97;5013371;28;20398;-59
2022/08/10 04:02:25;;;;;;;18.58;10.95;;;;;;;15.01;83.64;102487.38;5013488;28;20477;-59
2022/08/10 04:04:51;;;;;;;17.90;10.48;;;;;;;15.01;83.54;102488.22;5013360;28;20355;-59
2022/08/10 04:07:17;;;;;;;17.67;9.82;;;;;;;15.05;83.47;102494.03;5013423;28;20080;-59
2022/08/10 04:09:42;;;;;;;17.42;10.10;;;;;;;15.01;83.78;102493.78;5013749;28;20017;-60
2022/08/10 04:12:08;;;;;;;18.70;10.68;;;;;;;14.98;84.04;102489.63;5013307;28;20048;-59
2022/08/10 04:14:33;;;;;;;19.00;10.90;;;;;;;14.97;84.23;102490.75;5013609;28;20045;-59
2022/08/10 04:16:58;;;;;;;18.45;11.40;;;;;;;14.94;84.30;102485.78;5013223;28;20068;-59
2022/08/10 04:19:25;;;;;;;17.63;10.40;;;;;;;14.96;84.29;102491.03;5013595;28;20032;-60
2022/08/10 04:21:58;;;;;;;17.52;10.43;;;;;;;14.94;84.36;102490.50;5013475;28;20034;-58
2022/08/10 04:24:26;;;;;;;18.10;10.88;;;;;;;14.95;84.57;102493.03;5013408;28;20030;-58
2022/08/10 04:26:52;;;;;;;17.55;10.85;;;;;;;14.95;84.34;102494.97;5013289;28;20052;-60
2022/08/10 04:29:17;;;;;;;18.73;10.52;;;;;;;14.96;84.73;102491.91;5013008;28;20415;-59
2022/08/10 04:31:44;;;;;;;18.50;10.50;;;;;;;14.89;84.85;102487.78;4994940;28;20102;-59
2022/08/10 04:34:13;;;;;;;20.35;11.40;;;;;;;14.94;85.06;102493.28;5012703;28;20034;-60
2022/08/10 04:36:39;;;;;;;18.20;11.13;;;;;;;14.95;85.00;102494.97;5012811;28;20108;-59
2022/08/10 04:39:05;;;;;;;18.60;11.15;;;;;;;14.96;84.70;102497.47;5013056;28;20041;-60
2022/08/10 04:41:31;;;;;;;20.08;11.65;;;;;;;14.97;84.47;102492.72;5012709;28;20474;-59
2022/08/10 04:43:56;;;;;;;18.83;11.13;;;;;;;14.99;84.39;102493.25;5013015;28;20026;-60
2022/08/10 04:46:21;;;;;;;18.02;10.70;;;;;;;14.97;84.90;102493.53;5012839;28;20128;-60
2022/08/10 04:48:47;;;;;;;20.05;11.25;;;;;;;15.03;84.58;102496.28;5012684;28;20054;-60
2022/08/10 04:51:15;;;;;;;17.63;10.20;;;;;;;14.98;84.53;102486.00;5012496;28;20026;-60
2022/08/10 04:53:40;;;;;;;18.90;10.50;;;;;;;15.06;84.76;102493.72;5012596;28;20061;-59
2022/08/10 04:56:07;;;;;;;18.63;11.15;;;;;;;15.03;85.02;102487.91;5012828;28;20072;-60
2022/08/10 04:58:33;;;;;;;19.58;11.02;;;;;;;15.02;85.12;102487.06;5012782;28;20117;-60
2022/08/10 05:00:59;;;;;;;18.75;10.85;;;;;;;15.08;84.81;102488.69;5012277;28;20026;-59
2022/08/10 05:03:24;;;;;;;21.65;11.38;;;;;;;15.12;84.51;102488.91;5012466;28;20102;-60
2022/08/10 05:05:49;;;;;;;18.20;11.30;;;;;;;15.12;84.95;102492.53;5012611;28;20359;-59
2022/08/10 05:08:15;;;;;;;19.55;11.27;;;;;;;15.15;84.92;102490.28;5012271;28;20037;-59
2022/08/10 05:10:40;;;;;;;18.52;11.00;;;;;;;15.13;84.85;102485.81;5012123;28;20374;-59
2022/08/10 05:13:05;;;;;;;18.52;11.00;;;;;;;15.22;84.52;102486.00;5012272;28;20037;-60
2022/08/10 05:15:30;;;;;;;19.65;10.95;;;;;;;15.30;84.29;102484.53;5012414;28;20422;-60
2022/08/10 05:17:56;;;;;;;20.15;11.02;;;;;;;15.37;84.07;102489.72;5012122;28;20462;-60
2022/08/10 05:20:21;;;;;;;19.20;10.90;;;;;;;15.42;83.82;102496.06;5012276;28;20512;-60
2022/08/10 05:22:47;;;;;;;20.08;11.68;;;;;;;15.44;84.17;102487.41;5012569;28;20014;-59
2022/08/10 05:25:17;;;;;;;19.67;10.90;;;;;;;15.41;84.32;102496.38;5011907;28;20057;-59
2022/08/10 05:27:44;;;;;;;18.80;11.32;;;;;;;15.47;84.12;102497.94;5011633;28;20037;-59
2022/08/10 05:30:15;;;;;;;19.20;11.13;;;;;;;15.44;84.27;102484.63;5011991;28;20026;-58
2022/08/10 05:32:41;;;;;;;20.27;11.15;;;;;;;15.55;83.72;102499.25;5012028;28;20028;-59
2022/08/10 05:35:07;;;;;;;18.80;11.20;;;;;;;15.56;84.16;102500.91;5011558;28;20112;-60
2022/08/10 05:37:33;;;;;;;18.58;11.20;;;;;;;15.63;83.97;102506.94;5011976;28;20026;-60
2022/08/10 05:40:01;;;;;;;21.13;11.57;;;;;;;15.71;83.81;102500.69;5011966;28;20322;-59
2022/08/10 05:42:28;;;;;;;19.17;11.10;;;;;;;15.81;83.48;102505.31;5011750;28;20072;-59
2022/08/10 05:44:54;;;;;;;19.88;11.23;;;;;;;15.84;83.02;102501.94;5011428;28;20018;-59
2022/08/10 05:47:19;;;;;;;21.80;12.50;;;;;;;15.88;83.17;102507.72;5011428;28;20033;-60
2022/08/10 05:49:48;;;;;;;20.00;12.02;;;;;;;15.96;82.63;102507.06;5011477;28;20057;-58
2022/08/10 05:52:15;;;;;;;19.00;10.80;;;;;;;16.03;82.53;102506.66;5011735;28;20033;-60
2022/08/10 05:54:41;;;;;;;20.42;11.82;;;;;;;16.08;82.25;102512.19;5011879;28;20450;-59
2022/08/10 05:57:06;;;;;;;19.67;12.05;;;;;;;16.14;82.09;102507.34;5011456;28;20030;-59
2022/08/10 05:59:34;;;;;;;20.55;11.73;;;;;;;16.19;82.11;102505.31;5011813;28;20026;-60
2022/08/10 06:02:05;;;;;;;19.77;12.20;;;;;;;16.21;81.69;102502.22;5011709;28;20026;-60
2022/08/10 06:04:37;;;;;;;19.77;12.48;;;;;;;16.35;81.77;102516.22;5011679;28;20030;-60
2022/08/10 06:07:04;;;;;;;18.80;11.85;;;;;;;16.47;80.98;102508.19;5011633;28;20442;-60
2022/08/10 06:09:30;;;;;;;20.90;11.55;;;;;;;16.57;80.03;102509.97;5011505;28;20476;-60
2022/08/10 06:11:58;;;;;;;19.55;12.05;;;;;;;16.66;79.87;102508.13;5011647;28;20057;-60
2022/08/10 06:17:10;;;;;;;20.42;12.02;;;;;;;16.84;79.58;102503.59;5011916;28;20122;-59
2022/08/10 06:19:35;;;;;;;20.90;11.85;;;;;;;16.93;78.42;102492.56;5011383;28;20044;-59
2022/08/10 06:22:01;;;;;;;20.05;12.93;;;;;;;17.02;78.07;102503.84;5011449;28;20510;-58
2022/08/10 06:24:30;;;;;;;20.25;12.43;;;;;;;17.14;77.93;102506.94;5011255;28;20105;-59
2022/08/10 06:26:56;;;;;;;19.83;12.02;;;;;;;17.14;77.29;102506.13;5011650;28;20084;-59
2022/08/10 06:29:22;;;;;;;20.50;13.02;;;;;;;17.23;77.41;102504.25;5011695;28;20030;-59
2022/08/10 06:31:49;;;;;;;19.38;12.07;;;;;;;17.30;77.07;102493.47;5011382;28;20034;-60
2022/08/10 06:34:21;;;;;;;21.10;12.73;;;;;;;17.49;76.65;102506.50;5011119;28;20049;-59
2022/08/10 06:36:47;;;;;;;19.83;12.70;;;;;;;17.64;75.84;102510.13;5011372;28;20044;-58
2022/08/10 06:39:12;;;;;;;21.02;12.30;;;;;;;17.67;75.11;102496.34;5013636;28;20025;-59
2022/08/10 06:41:44;;;;;;;20.50;12.45;;;;;;;17.72;75.38;102500.97;5014901;28;20029;-59
2022/08/10 06:44:18;;;;;;;19.48;11.70;;;;;;;17.74;74.92;102493.09;5015087;28;20049;-59
2022/08/10 06:46:47;;;;;;;20.70;12.10;;;;;;;17.85;74.44;102494.53;5014995;28;20034;-59
2022/08/10 06:49:17;;;;;;;20.45;11.93;;;;;;;17.95;74.12;102507.44;5014690;28;20061;-59
2022/08/10 06:51:46;;;;;;;21.65;11.27;;;;;;;18.00;72.95;102500.94;5014459;28;20099;-59
2022/08/10 06:54:16;;;;;;;19.58;11.85;;;;;;;17.95;72.32;102493.44;5014739;28;20129;-59
2022/08/10 06:56:44;;;;;;;20.55;12.00;;;;;;;18.12;71.74;102508.75;5015012;28;20168;-59
2022/08/10 06:59:32;;;;;;;19.13;12.05;;;;;;;18.15;71.17;102496.94;5014621;28;20336;-59
2022/08/10 07:02:08;;;;;;;21.40;12.20;;;;;;;18.36;70.82;102512.09;5014957;28;20058;-59
2022/08/10 07:04:47;;;;;;;19.73;11.95;;;;;;;18.46;70.32;102502.56;5014566;28;20030;-59
2022/08/10 07:07:19;;;;;;;19.85;11.95;;;;;;;18.60;68.84;102510.91;5014616;28;20096;-59
2022/08/10 07:09:48;;;;;;;20.02;11.90;;;;;;;18.67;69.04;102513.25;5014603;28;20030;-59
2022/08/10 07:12:14;;;;;;;20.10;12.02;;;;;;;18.77;68.47;102506.53;5014282;28;20357;-60
2022/08/10 07:14:43;;;;;;;20.05;11.85;;;;;;;18.83;68.93;102506.06;5014448;28;20028;-60
2022/08/10 07:17:12;;;;;;;19.20;12.05;;;;;;;18.90;68.21;102511.22;5014265;28;20026;-59
2022/08/10 07:19:40;;;;;;;19.52;11.63;;;;;;;19.06;67.10;102513.63;5014383;28;20026;-59
2022/08/10 07:22:07;;;;;;;20.20;11.50;;;;;;;19.12;66.55;102509.53;5014192;28;20053;-60
2022/08/10 07:24:34;;;;;;;22.35;12.57;;;;;;;19.21;66.50;102510.38;5014616;28;20056;-59
2022/08/10 07:27:02;;;;;;;19.33;11.50;;;;;;;19.33;65.92;102512.56;5014455;28;20030;-59
2022/08/10 07:29:30;;;;;;;19.60;11.68;;;;;;;19.44;65.24;102518.69;5013788;28;20077;-59
2022/08/10 07:31:58;;;;;;;21.40;12.32;;;;;;;19.57;65.15;102520.53;5014137;28;20091;-59
2022/08/10 07:34:25;;;;;;;20.00;11.05;;;;;;;19.71;65.10;102513.94;5013621;28;20461;-60
2022/08/10 07:36:52;;;;;;;19.60;11.38;;;;;;;19.82;64.83;102514.47;5013976;28;20120;-59
2022/08/10 07:39:20;;;;;;;19.67;11.07;;;;;;;19.92;63.59;102525.41;5013651;28;20462;-58
2022/08/10 07:41:48;;;;;;;19.10;11.20;;;;;;;19.94;63.17;102521.09;5013612;28;20026;-59
2022/08/10 07:44:14;;;;;;;18.88;11.32;;;;;;;20.05;63.02;102518.78;5013466;28;20051;-61
2022/08/10 07:46:43;;;;;;;18.45;10.82;;;;;;;20.09;62.62;102505.75;5013701;28;20482;-60
2022/08/10 07:49:15;;;;;;;19.77;10.75;;;;;;;20.22;62.17;102517.94;5012916;28;20057;-59
2022/08/10 07:51:41;;;;;;;18.05;10.73;;;;;;;20.39;61.93;102524.69;5013222;28;20030;-59
2022/08/10 07:54:14;;;;;;;18.40;10.98;;;;;;;20.49;61.50;102523.53;5013621;28;20026;-59
2022/08/10 07:56:42;;;;;;;18.52;10.80;;;;;;;20.52;59.66;102518.06;5013856;28;20045;-58
2022/08/10 07:59:10;;;;;;;19.63;10.20;;;;;;;20.60;59.82;102507.94;5013515;28;20037;-60
2022/08/10 08:01:41;;;;;;;17.80;9.75;;;;;;;20.70;58.21;102510.41;5013455;28;20100;-60
2022/08/10 08:04:11;;;;;;;19.38;10.27;;;;;;;20.77;58.49;102518.34;4995497;28;20394;-59
2022/08/10 08:06:38;;;;;;;19.10;11.18;;;;;;;20.82;58.84;102518.19;5013201;28;20148;-60
2022/08/10 08:09:04;;;;;;;20.05;10.38;;;;;;;20.98;58.09;102518.44;5013471;28;20096;-59
2022/08/10 08:11:31;;;;;;;18.10;9.73;;;;;;;21.06;57.46;102515.94;5013429;28;20022;-59
2022/08/10 08:13:59;;;;;;;18.10;10.38;;;;;;;21.12;57.76;102514.59;5013005;28;20026;-59
2022/08/10 08:16:25;;;;;;;17.85;10.20;;;;;;;21.23;57.16;102518.66;5013129;28;20038;-59
2022/08/10 08:18:53;;;;;;;20.23;9.63;;;;;;;21.33;55.83;102518.28;5013068;28;20374;-58
2022/08/10 08:21:19;;;;;;;17.23;9.60;;;;;;;21.42;56.05;102512.59;5013075;28;20165;-59
2022/08/10 08:23:45;;;;;;;18.63;9.43;;;;;;;21.55;56.10;102512.69;5013324;28;20061;-59
2022/08/10 08:26:11;;;;;;;17.45;9.68;;;;;;;21.64;55.68;102510.66;5013256;28;20017;-59
2022/08/10 08:28:37;;;;;;;16.77;9.63;;;;;;;21.78;55.57;102513.22;5013139;28;20460;-58
2022/08/10 08:31:03;;;;;;;18.13;9.55;;;;;;;21.95;56.23;102513.06;5012832;28;20034;-59
2022/08/10 08:33:30;;;;;;;17.60;9.57;;;;;;;22.07;55.36;102515.09;5013179;28;20496;-60
2022/08/10 08:35:58;;;;;;;18.33;10.13;;;;;;;22.21;54.65;102512.00;5012959;28;20084;-60
2022/08/10 08:38:25;;;;;;;18.20;9.73;;;;;;;22.25;54.62;102507.34;5012916;28;20029;-59
2022/08/10 08:41:06;;;;;;;17.73;9.65;;;;;;;22.28;54.60;102501.00;5013085;28;20529;-59
2022/08/10 08:43:48;;;;;;;18.15;9.70;;;;;;;22.34;54.79;102498.78;5012774;28;20026;-59
2022/08/10 08:46:41;;;;;;;18.58;9.52;;;;;;;22.48;55.14;102514.59;5012822;28;20030;-59
2022/08/10 08:49:33;;;;;;;19.13;9.60;;;;;;;22.57;53.66;102506.88;5012325;28;20124;-59
2022/08/10 08:51:58;;;;;;;17.15;8.95;;;;;;;22.67;52.75;102502.78;4994721;28;20026;-59
2022/08/10 08:54:41;;;;;;;17.53;8.93;;;;;;;22.87;54.09;102504.66;5013038;28;20026;-59
2022/08/10 08:57:22;;;;;;;17.10;9.50;;;;;;;22.99;52.68;102506.69;5012571;28;20057;-59
2022/08/10 09:00:00;;;;;;;16.42;9.40;;;;;;;23.14;53.28;102508.00;5012804;28;20033;-60
2022/08/10 09:02:56;;;;;;;18.02;9.88;;;;;;;23.29;53.01;102509.28;5011445;28;20394;-60
2022/08/10 09:05:43;;;;;;;17.80;10.05;;;;;;;23.35;51.09;102501.41;5012772;28;20446;-60
2022/08/10 09:08:46;;;;;;;17.95;10.13;;;;;;;23.51;52.30;102505.16;5012195;28;20105;-59
2022/08/10 09:11:17;;;;;;;18.27;9.80;;;;;;;23.67;50.85;102498.78;4994088;28;20037;-59
2022/08/10 09:13:52;;;;;;;18.95;10.00;;;;;;;23.75;50.06;102491.34;5012430;28;20494;-59
2022/08/10 09:16:17;;;;;;;19.23;10.25;;;;;;;23.83;49.80;102490.38;5013008;28;20034;-59
2022/08/10 09:19:01;;;;;;;18.07;10.20;;;;;;;23.86;49.40;102489.63;5012201;28;20042;-59
2022/08/10 09:21:37;;;;;;;19.10;10.00;;;;;;;23.87;49.38;102491.28;5012302;28;20088;-59
2022/08/10 09:24:28;;;;;;;17.73;10.18;;;;;;;23.84;49.78;102492.03;5012378;28;20117;-58
2022/08/10 09:26:59;;;;;;;18.70;9.90;;;;;;;23.78;49.29;102482.13;5012014;28;20038;-59
2022/08/10 09:29:27;;;;;;;17.15;9.45;;;;;;;23.98;49.34;102489.63;5012140;28;20091;-60
2022/08/10 09:32:06;;;;;;;18.33;9.45;;;;;;;24.14;48.49;102483.19;5012141;28;20053;-60
2022/08/10 09:35:00;;;;;;;16.73;9.18;;;;;;;24.36;49.30;102478.16;5012051;28;20116;-59
2022/08/10 09:37:30;;;;;;;;;;;;;;;24.58;47.61;102476.69;5012279;28;20420;-60
2022/08/10 09:40:14;;;;;;;17.10;9.02;;;;;;;24.70;47.40;102478.69;5011760;28;20317;-60
2022/08/10 09:43:08;;;;;;;20.23;11.77;;;;;;;24.85;47.43;102472.19;5012163;28;20072;-60
2022/08/10 09:45:55;;;;;;;18.07;9.10;;;;;;;25.05;45.46;102477.94;5012159;28;20029;-60
2022/08/10 09:48:31;;;;;;;17.77;9.10;;;;;;;25.22;45.96;102471.88;5011843;28;20644;-59
2022/08/10 09:51:20;;;;;;;17.65;8.82;;;;;;;25.31;45.13;102471.66;5012093;28;20030;-59
2022/08/10 09:53:57;;;;;;;16.20;9.30;;;;;;;25.41;43.66;102467.47;5011782;28;20109;-59
2022/08/10 09:57:03;;;;;;;16.70;8.90;;;;;;;25.47;44.39;102470.81;5011774;28;20029;-59
2022/08/10 09:59:41;;;;;;;16.52;9.35;;;;;;;25.50;44.27;102456.72;5011678;28;20042;-59
2022/08/10 10:02:37;;;;;;;16.17;9.00;;;;;;;25.68;43.43;102465.63;5011736;28;20037;-58
2022/08/10 10:05:06;;;;;;;15.05;9.25;;;;;;;25.83;43.09;102451.75;5011982;28;20030;-59
2022/08/10 10:07:35;;;;;;;16.98;9.30;;;;;;;25.93;43.54;102447.50;5011518;28;20437;-59
2022/08/10 10:10:09;;;;;;;20.52;10.05;;;;;;;25.84;41.94;102437.19;5011762;28;20382;-59
2022/08/10 10:12:55;;;;;;;17.98;8.93;;;;;;;25.86;42.84;102448.19;5012999;28;20037;-59
2022/08/10 10:15:49;;;;;;;16.45;9.63;;;;;;;26.03;42.90;102444.03;5015570;28;20116;-59
2022/08/10 10:18:18;;;;;;;;;;;;;;;26.17;43.75;102440.69;4989948;28;20042;-60
2022/08/10 10:21:01;;;;;;;18.95;8.90;;;;;;;26.32;41.69;102433.25;5015070;28;19917;-60
2022/08/10 10:24:05;;;;;;;17.48;9.50;;;;;;;26.37;41.86;102434.97;5015265;28;20445;-60
2022/08/10 10:26:58;;;;;;;16.50;9.30;;;;;;;26.49;42.10;102426.28;5013590;28;20105;-59
2022/08/10 10:29:27;;;;;;;15.15;9.05;;;;;;;26.54;40.66;102430.81;5015248;28;20029;-59
2022/08/10 10:32:02;;;;;;;17.58;9.77;;;;;;;26.42;40.96;102418.47;5015479;28;20029;-60
2022/08/10 10:34:44;;;;;;;17.55;9.35;;;;;;;26.60;41.26;102415.94;5015098;28;20040;-60
2022/08/10 10:37:12;;;;;;;17.17;9.35;;;;;;;26.80;39.98;102421.56;5014960;28;20085;-60
2022/08/10 10:39:43;;;;;;;14.35;8.98;;;;;;;26.81;39.10;102422.38;5014999;28;20034;-60
2022/08/10 10:42:29;;;;;;;15.70;9.25;;;;;;;26.96;39.65;102417.72;5015030;28;20096;-59
2022/08/10 10:45:16;;;;;;;16.50;9.38;;;;;;;26.99;39.48;102414.94;5014880;28;20033;-60
2022/08/10 10:48:10;;;;;;;16.88;9.77;;;;;;;27.16;39.79;102409.94;5014777;28;20030;-60
2022/08/10 10:51:01;;;;;;;16.90;9.75;;;;;;;27.17;37.38;102406.69;4977756;28;20045;-60
2022/08/10 10:53:43;;;;;;;15.15;9.40;;;;;;;27.29;38.15;102397.09;5014890;28;20096;-59
2022/08/10 10:56:29;;;;;;;16.63;9.43;;;;;;;27.39;36.31;102399.28;5014544;28;20133;-60
2022/08/10 10:59:23;;;;;;;16.58;9.68;;;;;;;27.47;37.07;102394.53;5014712;28;20049;-59
2022/08/10 11:02:17;;;;;;;17.50;9.50;;;;;;;27.50;36.49;102390.91;5014782;28;20168;-58
2022/08/10 11:04:57;;;;;;;16.10;9.50;;;;;;;27.52;35.38;102393.38;5014659;28;20056;-61
2022/08/10 11:07:57;;;;;;;16.30;9.32;;;;;;;27.60;34.90;102389.41;5014723;28;20105;-59
2022/08/10 11:10:35;;;;;;;18.17;9.25;;;;;;;27.53;34.25;102387.28;4982279;28;20161;-61
2022/08/10 11:13:16;;;;;;;16.40;9.20;;;;;;;27.55;34.90;102382.06;5014832;28;20420;-59
2022/08/10 11:15:58;;;;;;;17.70;9.20;;;;;;;27.67;34.98;102371.63;5014542;28;20041;-59
2022/08/10 11:18:38;;;;;;;16.23;8.77;;;;;;;27.77;34.53;102368.09;5014166;28;20064;-59
2022/08/10 11:21:12;;;;;;;18.10;9.35;;;;;;;27.91;34.43;102375.13;5012917;28;20119;-60
2022/08/10 11:24:06;;;;;;;17.15;9.65;;;;;;;27.89;33.77;102375.53;5013503;28;20117;-60
2022/08/10 11:26:31;;;;;;;19.23;9.48;;;;;;;27.91;34.60;102377.97;5014034;28;20057;-59
2022/08/10 11:29:06;;;;;;;14.43;8.97;;;;;;;27.97;34.66;102374.38;5014167;28;20060;-59
2022/08/10 11:31:42;;;;;;;15.25;9.02;;;;;;;28.13;34.82;102376.19;5014060;28;20174;-59
2022/08/10 11:34:31;;;;;;;16.88;9.02;;;;;;;28.34;33.26;102375.56;5014142;28;20100;-60
2022/08/10 11:37:18;;;;;;;18.30;9.57;;;;;;;28.16;33.39;102364.03;4995978;28;20065;-59
2022/08/10 11:40:06;;;;;;;16.58;9.32;;;;;;;28.21;33.48;102383.56;5013797;28;20057;-60
2022/08/10 11:42:43;;;;;;;17.30;9.48;;;;;;;28.31;33.53;102373.50;5003062;28;20046;-60